sensor_id;sensor_type;location;lat;lon;timestamp;pressure;altitude;pressure_sealevel;temperature;humidity
26839;BME280;40088;51.214;6.786;2023-02-16T00:09:59;102214.84;;;17.01;48.13
26839;BME280;40088;51.214;6.786;2023-02-16T00:19:59;102207.91;;;16.97;48.10
26839;BME280;40088;51.214;6.786;2023-02-16T00:30:00;102214.09;;;16.99;47.95
26839;BME280;40088;51.214;6.786;2023-02-16T00:40:00;102193.78;;;17.00;47.90
26839;BME280;40088;51.214;6.786;2023-02-16T00:50:00;102194.84;;;16.99;47.86
26839;BME280;40088;51.214;6.786;2023-02-16T01:00:25;102191.22;;;16.99;47.91
26839;BME280;40088;51.214;6.786;2023-02-16T01:10:27;102184.84;;;16.98;47.93
26839;BME280;40088;51.214;6.786;2023-02-16T01:20:47;102178.47;;;16.98;47.80
26839;BME280;40088;51.214;6.786;2023-02-16T01:30:48;102188.63;;;16.97;47.87
26839;BME280;40088;51.214;6.786;2023-02-16T01:40:56;102186.75;;;16.98;47.91
26839;BME280;40088;51.214;6.786;2023-02-16T01:51:28;102172.13;;;16.97;47.85
26839;BME280;40088;51.214;6.786;2023-02-16T02:01:38;102165.56;;;16.98;47.70
26839;BME280;40088;51.214;6.786;2023-02-16T02:11:45;102168.31;;;16.98;47.81
26839;BME280;40088;51.214;6.786;2023-02-16T02:32:28;102161.09;;;16.97;47.61
26839;BME280;40088;51.214;6.786;2023-02-16T02:52:35;102142.84;;;16.96;47.58
26839;BME280;40088;51.214;6.786;2023-02-16T03:02:37;102132.84;;;16.95;47.64
26839;BME280;40088;51.214;6.786;2023-02-16T03:12:40;102127.34;;;16.95;47.66
26839;BME280;40088;51.214;6.786;2023-02-16T03:22:46;102102.56;;;16.95;47.41
26839;BME280;40088;51.214;6.786;2023-02-16T03:33:04;102090.53;;;16.96;47.46
26839;BME280;40088;51.214;6.786;2023-02-16T03:43:06;102099.81;;;16.95;47.46
26839;BME280;40088;51.214;6.786;2023-02-16T03:53:06;102109.81;;;16.96;47.46
26839;BME280;40088;51.214;6.786;2023-02-16T04:03:07;102119.97;;;16.96;47.50
26839;BME280;40088;51.214;6.786;2023-02-16T04:13:08;102102.56;;;16.95;47.48
26839;BME280;40088;51.214;6.786;2023-02-16T04:23:08;102103.28;;;16.97;47.20
26839;BME280;40088;51.214;6.786;2023-02-16T04:33:08;102101.56;;;16.96;47.25
26839;BME280;40088;51.214;6.786;2023-02-16T04:43:09;102100.69;;;16.96;47.32
26839;BME280;40088;51.214;6.786;2023-02-16T04:53:09;102094.16;;;16.97;47.40
26839;BME280;40088;51.214;6.786;2023-02-16T05:03:09;102108.78;;;16.97;47.37
26839;BME280;40088;51.214;6.786;2023-02-16T05:13:10;102101.38;;;16.98;47.43
26839;BME280;40088;51.214;6.786;2023-02-16T05:23:29;102114.47;;;16.96;47.48
26839;BME280;40088;51.214;6.786;2023-02-16T05:33:29;102106.03;;;16.97;47.33
26839;BME280;40088;51.214;6.786;2023-02-16T05:43:29;102114.47;;;16.96;47.37
26839;BME280;40088;51.214;6.786;2023-02-16T05:53:30;102105.16;;;16.97;47.39
26839;BME280;40088;51.214;6.786;2023-02-16T06:03:31;102104.31;;;16.96;47.39
26839;BME280;40088;51.214;6.786;2023-02-16T06:13:32;102105.16;;;16.97;47.16
26839;BME280;40088;51.214;6.786;2023-02-16T06:23:33;102093.28;;;16.96;47.23
26839;BME280;40088;51.214;6.786;2023-02-16T06:33:33;102089.50;;;16.97;47.28
26839;BME280;40088;51.214;6.786;2023-02-16T06:43:33;102106.88;;;16.98;47.25
26839;BME280;40088;51.214;6.786;2023-02-16T06:53:34;102110.66;;;16.97;47.24
26839;BME280;40088;51.214;6.786;2023-02-16T07:03:34;102112.41;;;16.98;47.10
26839;BME280;40088;51.214;6.786;2023-02-16T07:13:34;102114.13;;;16.99;47.16
26839;BME280;40088;51.214;6.786;2023-02-16T07:23:35;102104.13;;;16.98;47.30
26839;BME280;40088;51.214;6.786;2023-02-16T07:33:35;102095.88;;;16.98;47.08
26839;BME280;40088;51.214;6.786;2023-02-16T07:43:37;102107.75;;;16.98;47.11
26839;BME280;40088;51.214;6.786;2023-02-16T07:53:38;102101.38;;;16.98;47.12
26839;BME280;40088;51.214;6.786;2023-02-16T08:03:39;102113.25;;;16.98;47.18
26839;BME280;40088;51.214;6.786;2023-02-16T08:13:39;102118.75;;;16.98;47.26
26839;BME280;40088;51.214;6.786;2023-02-16T08:23:45;102108.78;;;16.97;47.25
26839;BME280;40088;51.214;6.786;2023-02-16T08:33:49;102128.91;;;16.98;47.37
26839;BME280;40088;51.214;6.786;2023-02-16T08:43:50;102115.84;;;17.00;47.32
26839;BME280;40088;51.214;6.786;2023-02-16T08:53:51;102129.78;;;16.98;47.33
26839;BME280;40088;51.214;6.786;2023-02-16T09:03:52;102130.63;;;16.99;47.24
26839;BME280;40088;51.214;6.786;2023-02-16T09:13:52;102122.38;;;16.99;47.30
26839;BME280;40088;51.214;6.786;2023-02-16T09:23:54;102128.75;;;16.99;47.30
26839;BME280;40088;51.214;6.786;2023-02-16T09:33:59;102124.25;;;16.98;47.35
26839;BME280;40088;51.214;6.786;2023-02-16T09:44:09;102161.78;;;16.99;47.50
26839;BME280;40088;51.214;6.786;2023-02-16T09:54:41;102150.09;;;16.97;47.43
26839;BME280;40088;51.214;6.786;2023-02-16T10:15:18;102150.94;;;16.98;47.50
26839;BME280;40088;51.214;6.786;2023-02-16T10:25:36;102164.53;;;16.99;47.39
26839;BME280;40088;51.214;6.786;2023-02-16T10:35:49;102165.41;;;17.00;47.52
26839;BME280;40088;51.214;6.786;2023-02-16T10:45:53;102165.41;;;17.00;47.46
26839;BME280;40088;51.214;6.786;2023-02-16T10:55:55;102157.13;;;17.00;47.44
26839;BME280;40088;51.214;6.786;2023-02-16T11:05:55;102153.53;;;16.99;47.64
26839;BME280;40088;51.214;6.786;2023-02-16T11:16:00;102141.47;;;17.00;47.68
26839;BME280;40088;51.214;6.786;2023-02-16T11:36:43;102116.69;;;17.00;47.66
26839;BME280;40088;51.214;6.786;2023-02-16T11:46:44;102082.66;;;17.01;47.75
26839;BME280;40088;51.214;6.786;2023-02-16T11:57:03;102084.53;;;17.01;47.71
26839;BME280;40088;51.214;6.786;2023-02-16T12:07:29;102089.88;;;17.02;47.65
26839;BME280;40088;51.214;6.786;2023-02-16T12:39:06;102057.00;;;17.01;48.04
26839;BME280;40088;51.214;6.786;2023-02-16T12:49:13;102040.47;;;17.01;47.96
26839;BME280;40088;51.214;6.786;2023-02-16T12:59:37;102051.31;;;17.02;48.01
26839;BME280;40088;51.214;6.786;2023-02-16T13:20:18;102010.19;;;17.01;48.28
26839;BME280;40088;51.214;6.786;2023-02-16T13:30:32;102014.66;;;17.02;48.29
26839;BME280;40088;51.214;6.786;2023-02-16T13:51:13;101956.13;;;17.00;48.61
26839;BME280;40088;51.214;6.786;2023-02-16T14:01:39;101956.66;;;17.03;48.47
26839;BME280;40088;51.214;6.786;2023-02-16T14:21:54;101934.81;;;17.02;48.55
26839;BME280;40088;51.214;6.786;2023-02-16T14:31:59;101931.03;;;17.03;48.82
26839;BME280;40088;51.214;6.786;2023-02-16T14:42:07;101910.88;;;17.02;48.70
26839;BME280;40088;51.214;6.786;2023-02-16T15:02:41;101900.72;;;17.03;48.72
26839;BME280;40088;51.214;6.786;2023-02-16T15:12:56;101883.34;;;17.02;48.89
26839;BME280;40088;51.214;6.786;2023-02-16T15:22:59;101873.19;;;17.03;48.83
26839;BME280;40088;51.214;6.786;2023-02-16T15:33:02;101869.22;;;17.05;49.04
26839;BME280;40088;51.214;6.786;2023-02-16T15:43:28;101868.22;;;17.06;49.05
26839;BME280;40088;51.214;6.786;2023-02-16T16:03:48;101883.00;;;17.05;49.25
26839;BME280;40088;51.214;6.786;2023-02-16T16:13:49;101858.38;;;17.04;49.20
26839;BME280;40088;51.214;6.786;2023-02-16T16:24:35;101864.75;;;17.04;49.31
26839;BME280;40088;51.214;6.786;2023-02-16T16:34:39;101871.28;;;17.03;49.28
26839;BME280;40088;51.214;6.786;2023-02-16T16:44:42;101851.84;;;17.05;49.57
26839;BME280;40088;51.214;6.786;2023-02-16T16:54:43;101851.84;;;17.05;49.43
26839;BME280;40088;51.214;6.786;2023-02-16T17:04:45;101855.44;;;17.05;49.35
26839;BME280;40088;51.214;6.786;2023-02-16T17:14:45;101846.50;;;17.03;49.50
26839;BME280;40088;51.214;6.786;2023-02-16T17:24:46;101849.94;;;17.05;49.51
26839;BME280;40088;51.214;6.786;2023-02-16T17:34:46;101840.81;;;17.05;49.63
26839;BME280;40088;51.214;6.786;2023-02-16T17:44:47;101844.44;;;17.05;49.60
26839;BME280;40088;51.214;6.786;2023-02-16T17:54:47;101845.16;;;17.07;49.48
26839;BME280;40088;51.214;6.786;2023-02-16T18:04:47;101853.41;;;17.07;49.66
26839;BME280;40088;51.214;6.786;2023-02-16T18:14:47;101865.47;;;17.06;49.73
26839;BME280;40088;51.214;6.786;2023-02-16T18:24:48;101861.84;;;17.06;49.68
26839;BME280;40088;51.214;6.786;2023-02-16T18:34:48;101869.06;;;17.07;49.68
26839;BME280;40088;51.214;6.786;2023-02-16T18:44:48;101868.03;;;17.08;49.56
26839;BME280;40088;51.214;6.786;2023-02-16T18:54:49;101879.06;;;17.08;49.54
26839;BME280;40088;51.214;6.786;2023-02-16T19:04:50;101879.06;;;17.08;49.59
26839;BME280;40088;51.214;6.786;2023-02-16T19:14:50;101883.69;;;17.07;49.66
26839;BME280;40088;51.214;6.786;2023-02-16T19:24:50;101883.69;;;17.07;49.70
26839;BME280;40088;51.214;6.786;2023-02-16T19:34:51;101862.53;;;17.08;49.75
26839;BME280;40088;51.214;6.786;2023-02-16T19:44:51;101870.78;;;17.08;49.85
26839;BME280;40088;51.214;6.786;2023-02-16T19:54:51;101873.53;;;17.08;49.79
26839;BME280;40088;51.214;6.786;2023-02-16T20:04:52;101874.41;;;17.08;49.84
26839;BME280;40088;51.214;6.786;2023-02-16T20:14:53;101868.91;;;17.08;50.00
26839;BME280;40088;51.214;6.786;2023-02-16T20:24:53;101857.03;;;17.08;49.85
26839;BME280;40088;51.214;6.786;2023-02-16T20:34:54;101846.69;;;17.10;49.89
26839;BME280;40088;51.214;6.786;2023-02-16T20:44:54;101838.41;;;17.10;50.08
26839;BME280;40088;51.214;6.786;2023-02-16T20:54:54;101831.00;;;17.10;50.03
26839;BME280;40088;51.214;6.786;2023-02-16T21:04:54;101836.53;;;17.10;50.07
26839;BME280;40088;51.214;6.786;2023-02-16T21:14:55;101840.31;;;17.09;50.00
26839;BME280;40088;51.214;6.786;2023-02-16T21:24:55;101836.53;;;17.10;50.00
26839;BME280;40088;51.214;6.786;2023-02-16T21:34:55;101826.41;;;17.11;50.01
26839;BME280;40088;51.214;6.786;2023-02-16T21:44:56;101817.25;;;17.10;50.19
26839;BME280;40088;51.214;6.786;2023-02-16T21:55:12;101808.97;;;17.10;50.10
26839;BME280;40088;51.214;6.786;2023-02-16T22:05:32;101811.59;;;17.12;50.22
26839;BME280;40088;51.214;6.786;2023-02-16T22:15:35;101795.22;;;17.10;50.19
26839;BME280;40088;51.214;6.786;2023-02-16T22:25:38;101800.56;;;17.12;50.31
26839;BME280;40088;51.214;6.786;2023-02-16T22:35:38;101794.34;;;17.10;50.26
26839;BME280;40088;51.214;6.786;2023-02-16T22:45:39;101801.44;;;17.12;50.32
26839;BME280;40088;51.214;6.786;2023-02-16T22:55:40;101803.31;;;17.12;50.37
26839;BME280;40088;51.214;6.786;2023-02-16T23:05:40;101782.34;;;17.11;50.28
26839;BME280;40088;51.214;6.786;2023-02-16T23:15:40;101787.66;;;17.12;50.40
26839;BME280;40088;51.214;6.786;2023-02-16T23:25:45;101806.22;;;17.10;50.48
26839;BME280;40088;51.214;6.786;2023-02-16T23:35:46;101810.72;;;17.11;50.47
26839;BME280;40088;51.214;6.786;2023-02-16T23:45:47;101807.13;;;17.11;50.58
26839;BME280;40088;51.214;6.786;2023-02-16T23:56:05;101791.59;;;17.10;50.15
